createdAt,value
2023-06-18T00:00:43.165Z,12.27
2023-06-18T00:03:10.816Z,12.88
2023-06-18T00:05:38.584Z,11.77
2023-06-18T00:08:06.965Z,11.38
2023-06-18T00:10:34.545Z,11.60
2023-06-18T00:13:02.186Z,11.65
2023-06-18T00:15:29.677Z,13.48
2023-06-18T00:17:57.327Z,13.45
2023-06-18T00:20:24.986Z,16.70
2023-06-18T00:22:54.413Z,11.65
2023-06-18T00:25:22.441Z,13.00
2023-06-18T00:27:50.079Z,13.70
2023-06-18T00:30:17.652Z,12.70
2023-06-18T00:32:45.865Z,11.82
2023-06-18T00:35:15.735Z,11.80
2023-06-18T00:37:45.126Z,12.95
2023-06-18T00:40:13.691Z,12.35
2023-06-18T00:42:41.660Z,13.68
2023-06-18T00:45:13.286Z,11.13
2023-06-18T00:47:43.660Z,12.10
2023-06-18T00:50:17.387Z,11.77
2023-06-18T00:52:48.643Z,13.57
2023-06-18T00:55:17.657Z,11.57
2023-06-18T00:58:00.951Z,12.23
2023-06-18T01:00:35.567Z,13.63
2023-06-18T01:03:06.356Z,15.73
2023-06-18T01:05:35.812Z,12.43
2023-06-18T01:08:08.932Z,14.32
2023-06-18T01:10:40.688Z,12.20
2023-06-18T01:13:10.382Z,12.10
2023-06-18T01:15:39.654Z,13.32
2023-06-18T01:18:08.754Z,11.57
2023-06-18T01:20:42.988Z,14.48
2023-06-18T01:23:18.370Z,13.02
2023-06-18T01:25:47.665Z,13.93
2023-06-18T01:28:16.658Z,12.77
2023-06-18T01:30:44.271Z,12.15
2023-06-18T01:33:14.044Z,13.43
2023-06-18T01:35:42.273Z,11.98
2023-06-18T01:38:29.138Z,12.23
2023-06-18T01:41:14.245Z,13.00
2023-06-18T01:43:53.874Z,11.45
2023-06-18T01:46:25.405Z,13.85
2023-06-18T01:48:58.037Z,13.00
2023-06-18T01:51:28.271Z,14.13
2023-06-18T01:53:58.519Z,13.57
2023-06-18T01:56:30.579Z,12.93
2023-06-18T01:58:58.196Z,18.05
2023-06-18T02:01:27.714Z,12.85
2023-06-18T02:03:55.568Z,15.13
2023-06-18T02:06:23.179Z,29.60
2023-06-18T02:08:50.711Z,15.05
2023-06-18T02:11:18.300Z,15.82
2023-06-18T02:13:46.141Z,14.00
2023-06-18T02:16:13.736Z,13.07
2023-06-18T02:18:41.688Z,12.52
2023-06-18T02:21:09.710Z,14.40
2023-06-18T02:23:37.248Z,15.95
2023-06-18T02:26:04.952Z,17.00
2023-06-18T02:28:32.544Z,14.40
2023-06-18T02:31:00.213Z,13.77
2023-06-18T02:33:28.039Z,12.35
2023-06-18T02:35:55.536Z,14.68
2023-06-18T02:38:23.060Z,13.48
2023-06-18T02:40:50.671Z,15.32
2023-06-18T02:43:18.450Z,12.18
2023-06-18T02:45:46.078Z,12.63
2023-06-18T02:48:14.656Z,14.50
2023-06-18T02:50:42.328Z,12.80
2023-06-18T02:53:09.937Z,13.93
2023-06-18T02:55:38.234Z,13.15
2023-06-18T02:58:10.487Z,17.38
2023-06-18T03:00:38.204Z,14.70
2023-06-18T03:03:07.347Z,13.55
2023-06-18T03:05:37.764Z,14.43
2023-06-18T03:08:06.431Z,13.23
2023-06-18T03:10:34.679Z,11.57
2023-06-18T03:13:02.233Z,14.05
2023-06-18T03:15:44.618Z,14.02
2023-06-18T03:18:13.802Z,12.73
2023-06-18T03:20:43.824Z,12.93
2023-06-18T03:23:11.382Z,17.48
2023-06-18T03:25:42.388Z,13.88
2023-06-18T03:28:15.339Z,12.13
2023-06-18T03:30:43.788Z,15.23
2023-06-18T03:33:11.757Z,12.75
2023-06-18T03:35:41.306Z,12.88
2023-06-18T03:38:09.344Z,15.30
2023-06-18T03:40:37.112Z,13.45
2023-06-18T03:43:04.622Z,11.85
2023-06-18T03:45:32.210Z,12.80
2023-06-18T03:48:00.534Z,12.60
2023-06-18T03:50:34.610Z,12.82
2023-06-18T03:53:02.449Z,13.75
2023-06-18T03:55:30.084Z,13.52
2023-06-18T03:57:59.054Z,12.57
2023-06-18T04:00:26.973Z,16.40
2023-06-18T04:02:54.668Z,12.95
2023-06-18T04:05:22.376Z,13.85
2023-06-18T04:07:49.932Z,13.13
2023-06-18T04:10:18.510Z,12.93
2023-06-18T04:12:46.267Z,12.50
2023-06-18T04:15:13.914Z,11.35
2023-06-18T04:17:43.080Z,13.68
2023-06-18T04:20:14.002Z,19.48
2023-06-18T04:22:41.789Z,14.35
2023-06-18T04:25:12.077Z,11.43
2023-06-18T04:27:41.026Z,14.57
2023-06-18T04:30:09.686Z,12.07
2023-06-18T04:32:39.379Z,14.35
2023-06-18T04:35:07.541Z,12.82
2023-06-18T04:37:35.220Z,12.90
2023-06-18T04:40:05.468Z,11.48
2023-06-18T04:42:34.552Z,14.30
2023-06-18T04:45:02.812Z,12.52
2023-06-18T04:47:30.962Z,12.88
2023-06-18T04:49:58.673Z,14.07
2023-06-18T04:52:26.315Z,11.88
2023-06-18T04:54:54.695Z,11.30
2023-06-18T04:57:23.478Z,12.23
2023-06-18T04:59:51.525Z,12.77
2023-06-18T05:02:19.339Z,11.35
2023-06-18T05:04:46.981Z,12.13
2023-06-18T05:07:16.908Z,11.73
2023-06-18T05:09:44.533Z,11.95
2023-06-18T05:12:12.413Z,11.55
2023-06-18T05:14:40.016Z,11.27
2023-06-18T05:17:07.704Z,11.88
2023-06-18T05:19:35.242Z,12.13
2023-06-18T05:22:03.228Z,11.43
2023-06-18T05:24:31.695Z,11.52
2023-06-18T05:26:59.316Z,14.07
2023-06-18T05:29:26.898Z,11.85
2023-06-18T05:31:54.915Z,12.10
2023-06-18T05:34:29.896Z,12.95
2023-06-18T05:36:57.709Z,10.52
2023-06-18T05:39:25.553Z,13.05
2023-06-18T05:41:53.567Z,11.63
2023-06-18T05:44:23.516Z,12.32
2023-06-18T05:46:51.178Z,10.88
2023-06-18T05:49:19.043Z,10.52
2023-06-18T05:51:47.939Z,11.85
2023-06-18T05:54:15.657Z,15.00
2023-06-18T05:56:43.206Z,12.73
2023-06-18T05:59:11.606Z,12.10
2023-06-18T06:01:45.268Z,13.38
2023-06-18T06:04:14.088Z,11.63
2023-06-18T06:06:41.794Z,11.40
2023-06-18T06:09:10.394Z,11.38
2023-06-18T06:11:40.990Z,11.73
2023-06-18T06:14:12.259Z,12.60
2023-06-18T06:16:41.053Z,11.98
2023-06-18T06:19:08.741Z,10.80
2023-06-18T06:21:36.316Z,13.05
2023-06-18T06:24:04.268Z,13.95
2023-06-18T06:26:32.987Z,11.50
2023-06-18T06:29:02.103Z,11.98
2023-06-18T06:31:29.667Z,13.65
2023-06-18T06:33:57.612Z,12.13
2023-06-18T06:36:26.681Z,9.35
2023-06-18T06:38:55.444Z,12.18
2023-06-18T06:41:24.175Z,10.02
2023-06-18T06:43:52.280Z,9.02
2023-06-18T06:46:19.852Z,14.23
2023-06-18T06:49:08.502Z,12.93
2023-06-18T06:51:59.269Z,10.38
2023-06-18T06:54:27.775Z,9.20
2023-06-18T06:56:55.433Z,9.85
2023-06-18T06:59:23.296Z,9.20
2023-06-18T07:01:50.903Z,9.30
2023-06-18T07:04:18.469Z,11.55
2023-06-18T07:06:46.169Z,10.77
2023-06-18T07:09:13.787Z,10.73
2023-06-18T07:11:41.782Z,9.30
2023-06-18T07:14:09.597Z,9.90
2023-06-18T07:16:37.142Z,8.20
2023-06-18T07:19:05.081Z,7.93
2023-06-18T07:21:32.578Z,8.30
2023-06-18T07:24:00.176Z,7.97
2023-06-18T07:26:27.843Z,8.00
2023-06-18T07:28:55.444Z,8.45
2023-06-18T07:31:22.907Z,6.82
2023-06-18T07:33:50.382Z,7.90
2023-06-18T07:36:17.890Z,9.32
2023-06-18T07:38:45.460Z,7.97
2023-06-18T07:41:12.988Z,7.75
2023-06-18T07:43:42.005Z,7.82
2023-06-18T07:46:09.754Z,9.20
2023-06-18T07:48:38.836Z,8.13
2023-06-18T07:51:07.028Z,8.25
2023-06-18T07:53:34.582Z,9.05
2023-06-18T07:56:02.136Z,8.80
2023-06-18T07:58:29.726Z,9.48
2023-06-18T08:00:57.303Z,9.13
2023-06-18T08:03:24.846Z,7.25
2023-06-18T08:05:55.531Z,6.38
2023-06-18T08:08:23.055Z,7.43
2023-06-18T08:10:51.742Z,8.23
2023-06-18T08:13:19.313Z,8.75
2023-06-18T08:15:47.173Z,7.10
2023-06-18T08:18:14.908Z,7.80
2023-06-18T08:20:42.623Z,6.00
2023-06-18T08:23:10.468Z,6.57
2023-06-18T08:25:37.927Z,9.45
2023-06-18T08:28:05.436Z,6.97
2023-06-18T08:30:33.403Z,7.40
2023-06-18T08:33:00.938Z,6.40
2023-06-18T08:35:28.517Z,8.55
2023-06-18T08:37:56.017Z,10.90
2023-06-18T08:40:28.107Z,6.55
2023-06-18T08:43:06.686Z,6.93
2023-06-18T08:45:35.134Z,8.88
2023-06-18T08:48:19.400Z,6.97
2023-06-18T08:51:00.578Z,7.65
2023-06-18T08:53:51.978Z,8.20
2023-06-18T08:56:22.867Z,8.77
2023-06-18T08:58:54.122Z,8.25
2023-06-18T09:01:21.944Z,7.85
2023-06-18T09:03:50.881Z,8.27
2023-06-18T09:06:19.407Z,9.30
2023-06-18T09:08:47.837Z,11.38
2023-06-18T09:11:15.830Z,9.70
2023-06-18T09:13:44.499Z,8.70
2023-06-18T09:16:12.976Z,10.48
2023-06-18T09:18:40.894Z,10.60
2023-06-18T09:21:08.677Z,9.25
2023-06-18T09:23:37.611Z,10.60
2023-06-18T09:26:05.167Z,10.75
2023-06-18T09:28:32.771Z,9.68
2023-06-18T09:31:02.646Z,12.32
2023-06-18T09:33:37.792Z,12.23
2023-06-18T09:36:09.845Z,10.68
2023-06-18T09:38:42.232Z,9.77
2023-06-18T09:41:17.656Z,9.02
2023-06-18T09:43:51.818Z,9.48
2023-06-18T09:46:23.471Z,10.60
2023-06-18T09:48:51.434Z,10.32
2023-06-18T09:51:26.515Z,9.82
2023-06-18T09:53:59.786Z,11.23
2023-06-18T09:56:27.340Z,11.00
2023-06-18T09:58:54.871Z,9.55
2023-06-18T10:01:22.812Z,11.73
2023-06-18T10:03:50.621Z,17.73
2023-06-18T10:06:23.411Z,9.25
2023-06-18T10:08:56.770Z,13.02
2023-06-18T10:11:25.668Z,10.27
2023-06-18T10:13:59.368Z,12.15
2023-06-18T10:16:30.038Z,9.50
2023-06-18T10:19:07.451Z,11.98
2023-06-18T10:21:38.251Z,9.25
2023-06-18T10:24:19.674Z,10.38
2023-06-18T10:26:48.147Z,9.90
2023-06-18T10:29:15.684Z,10.65
2023-06-18T10:31:44.023Z,11.95
2023-06-18T10:34:13.642Z,11.48
2023-06-18T10:36:41.776Z,11.23
2023-06-18T10:39:22.075Z,13.05
2023-06-18T10:41:55.470Z,9.68
2023-06-18T10:44:51.556Z,12.80
2023-06-18T10:47:25.069Z,11.07
2023-06-18T10:50:08.446Z,9.98
2023-06-18T10:52:37.812Z,11.77
2023-06-18T10:55:14.391Z,10.80
2023-06-18T10:57:46.914Z,11.18
2023-06-18T11:00:22.075Z,11.43
2023-06-18T11:02:58.373Z,11.73
2023-06-18T11:05:37.839Z,10.45
2023-06-18T11:08:08.233Z,8.93
2023-06-18T11:11:14.232Z,10.65
2023-06-18T11:13:51.972Z,9.77
2023-06-18T11:16:19.616Z,9.68
2023-06-18T11:18:47.723Z,9.85
2023-06-18T11:21:20.206Z,10.68
2023-06-18T11:23:49.824Z,10.23
2023-06-18T11:26:21.106Z,10.13
2023-06-18T11:28:50.703Z,10.10
2023-06-18T11:31:18.320Z,10.60
2023-06-18T11:33:50.128Z,12.30
2023-06-18T11:36:20.588Z,9.25
2023-06-18T11:38:52.934Z,10.52
2023-06-18T11:41:22.751Z,10.27
2023-06-18T11:43:53.021Z,9.60
2023-06-18T11:46:35.549Z,10.45
2023-06-18T11:49:03.579Z,12.95
2023-06-18T11:51:32.594Z,14.27
2023-06-18T11:54:00.895Z,11.15
2023-06-18T11:56:31.174Z,10.13
2023-06-18T11:58:59.807Z,10.18
2023-06-18T12:01:32.100Z,13.32
2023-06-18T12:04:07.020Z,11.55
2023-06-18T12:06:36.038Z,11.32
2023-06-18T12:09:11.518Z,10.05
2023-06-18T12:12:08.643Z,16.23
2023-06-18T12:14:54.692Z,8.95
2023-06-18T12:17:32.379Z,10.50
2023-06-18T12:20:06.811Z,10.63
2023-06-18T12:22:36.001Z,13.07
2023-06-18T12:25:04.313Z,10.50
2023-06-18T12:27:32.017Z,10.02
2023-06-18T12:30:00.867Z,10.73
2023-06-18T12:32:28.526Z,14.40
2023-06-18T12:34:56.718Z,8.98
2023-06-18T12:37:34.350Z,9.30
2023-06-18T12:40:09.331Z,9.52
2023-06-18T12:42:37.745Z,10.98
2023-06-18T12:45:06.218Z,11.23
2023-06-18T12:47:40.082Z,12.27
2023-06-18T12:50:08.265Z,11.15
2023-06-18T12:52:46.516Z,10.50
2023-06-18T12:55:16.091Z,10.40
2023-06-18T12:57:45.202Z,9.57
2023-06-18T13:00:16.195Z,9.77
2023-06-18T13:02:47.721Z,11.82
2023-06-18T13:05:15.958Z,10.80
2023-06-18T13:07:51.853Z,13.32
2023-06-18T13:10:22.819Z,13.45
2023-06-18T13:12:50.445Z,10.00
2023-06-18T13:15:18.278Z,12.07
2023-06-18T13:17:46.130Z,10.93
2023-06-18T13:20:14.205Z,13.05
2023-06-18T13:22:41.821Z,11.13
2023-06-18T13:25:10.351Z,9.90
2023-06-18T13:27:37.936Z,12.45
2023-06-18T13:30:06.226Z,11.63
2023-06-18T13:32:33.738Z,10.52
2023-06-18T13:35:01.287Z,12.95
2023-06-18T13:37:28.982Z,13.75
2023-06-18T13:39:56.569Z,12.55
2023-06-18T13:42:24.217Z,12.73
2023-06-18T13:44:52.055Z,13.77
2023-06-18T13:47:19.696Z,10.85
2023-06-18T13:49:48.505Z,12.23
2023-06-18T13:52:16.165Z,10.38
2023-06-18T13:54:43.743Z,11.25
2023-06-18T13:57:11.635Z,11.25
2023-06-18T13:59:39.413Z,9.02
2023-06-18T14:02:07.642Z,11.05
2023-06-18T14:04:36.892Z,10.73
2023-06-18T14:07:05.760Z,11.23
2023-06-18T14:09:33.368Z,10.48
2023-06-18T14:12:01.208Z,10.05
2023-06-18T14:14:28.725Z,10.90
2023-06-18T14:16:56.828Z,12.13
2023-06-18T14:19:26.123Z,11.35
2023-06-18T14:21:54.126Z,11.73
2023-06-18T14:24:21.847Z,11.02
2023-06-18T14:26:49.624Z,10.98
2023-06-18T14:29:17.429Z,12.57
2023-06-18T14:31:45.140Z,12.77
2023-06-18T14:34:15.214Z,15.45
2023-06-18T14:36:42.726Z,12.52
2023-06-18T14:39:10.302Z,13.25
2023-06-18T14:41:37.973Z,12.75
2023-06-18T14:44:05.740Z,12.27
2023-06-18T14:46:33.345Z,11.75
2023-06-18T14:49:00.876Z,11.77
2023-06-18T14:51:28.437Z,11.60
2023-06-18T14:54:03.388Z,14.57
2023-06-18T14:56:31.910Z,10.35
2023-06-18T14:58:59.433Z,13.65
2023-06-18T15:01:28.924Z,11.55
2023-06-18T15:03:56.827Z,9.98
2023-06-18T15:06:24.664Z,11.00
2023-06-18T15:08:52.258Z,10.25
2023-06-18T15:11:19.923Z,10.98
2023-06-18T15:13:47.507Z,11.30
2023-06-18T15:16:15.044Z,12.15
2023-06-18T15:18:42.571Z,10.95
2023-06-18T15:21:10.204Z,11.43
2023-06-18T15:23:37.886Z,13.80
2023-06-18T15:26:08.161Z,12.95
2023-06-18T15:28:35.817Z,10.48
2023-06-18T15:31:03.365Z,11.10
2023-06-18T15:33:31.011Z,10.15
2023-06-18T15:35:58.540Z,11.63
2023-06-18T15:38:25.996Z,12.70
2023-06-18T15:40:54.424Z,10.35
2023-06-18T15:43:23.489Z,11.35
2023-06-18T15:45:51.388Z,11.25
2023-06-18T15:48:19.522Z,10.20
2023-06-18T15:50:48.967Z,11.25
2023-06-18T15:53:19.650Z,10.20
2023-06-18T15:55:48.559Z,12.35
2023-06-18T15:58:19.599Z,11.48
2023-06-18T16:00:47.325Z,12.05
2023-06-18T16:03:14.993Z,12.50
2023-06-18T16:05:42.942Z,15.07
2023-06-18T16:08:10.656Z,12.32
2023-06-18T16:10:38.923Z,12.38
2023-06-18T16:13:07.467Z,10.90
2023-06-18T16:15:35.131Z,12.40
2023-06-18T16:18:08.146Z,13.18
2023-06-18T16:20:37.764Z,13.30
2023-06-18T16:23:05.684Z,11.27
2023-06-18T16:25:33.682Z,10.50
2023-06-18T16:28:01.773Z,11.43
2023-06-18T16:30:31.217Z,11.82
2023-06-18T16:33:02.044Z,11.10
2023-06-18T16:35:29.952Z,11.35
2023-06-18T16:37:57.616Z,11.70
2023-06-18T16:40:27.458Z,12.65
2023-06-18T16:42:55.247Z,13.00
2023-06-18T16:45:23.155Z,12.30
2023-06-18T16:47:51.036Z,11.52
2023-06-18T16:50:18.717Z,10.40
2023-06-18T16:52:46.257Z,10.77
2023-06-18T16:55:13.759Z,10.93
2023-06-18T16:57:41.305Z,11.65
2023-06-18T17:00:09.345Z,12.48
2023-06-18T17:02:37.754Z,16.13
2023-06-18T17:05:06.180Z,11.68
2023-06-18T17:07:34.814Z,12.45
2023-06-18T17:10:02.372Z,12.38
2023-06-18T17:12:29.989Z,13.40
2023-06-18T17:14:57.558Z,10.65
2023-06-18T17:17:27.629Z,12.23
2023-06-18T17:19:55.197Z,27.40
2023-06-18T17:22:22.792Z,11.35
2023-06-18T17:24:50.355Z,10.63
2023-06-18T17:27:17.962Z,11.95
2023-06-18T17:29:46.579Z,13.25
2023-06-18T17:32:14.150Z,12.45
2023-06-18T17:34:41.689Z,11.32
2023-06-18T17:37:11.342Z,11.90
2023-06-18T17:39:39.005Z,11.43
2023-06-18T17:42:06.824Z,12.73
2023-06-18T17:44:34.496Z,11.02
2023-06-18T17:47:02.064Z,13.00
2023-06-18T17:49:29.541Z,11.75
2023-06-18T17:51:57.203Z,15.15
2023-06-18T17:54:25.022Z,14.00
2023-06-18T17:56:52.561Z,14.02
2023-06-18T17:59:20.162Z,13.63
2023-06-18T18:01:49.610Z,15.88
2023-06-18T18:04:17.330Z,12.68
2023-06-18T18:06:46.581Z,22.45
2023-06-18T18:09:14.275Z,13.50
2023-06-18T18:11:41.894Z,11.45
2023-06-18T18:14:09.634Z,16.48
2023-06-18T18:16:37.647Z,13.68
2023-06-18T18:19:05.341Z,11.50
2023-06-18T18:21:32.894Z,18.45
2023-06-18T18:24:00.504Z,14.52
2023-06-18T18:26:39.099Z,13.68
2023-06-18T18:29:14.584Z,12.23
2023-06-18T18:31:42.125Z,13.45
2023-06-18T18:34:11.706Z,16.27
2023-06-18T18:36:40.206Z,12.65
2023-06-18T18:39:08.340Z,14.85
2023-06-18T18:41:36.013Z,16.67
2023-06-18T18:44:04.233Z,13.50
2023-06-18T18:46:32.360Z,14.35
2023-06-18T18:49:00.783Z,11.93
2023-06-18T18:51:28.373Z,14.85
2023-06-18T18:53:56.243Z,12.35
2023-06-18T18:56:24.018Z,14.10
2023-06-18T18:58:51.541Z,12.68
2023-06-18T19:01:19.156Z,12.98
2023-06-18T19:03:46.986Z,12.82
2023-06-18T19:06:14.697Z,14.48
2023-06-18T19:08:42.683Z,13.30
2023-06-18T19:11:13.499Z,54.33
2023-06-18T19:13:41.414Z,71.40
2023-06-18T19:16:09.354Z,42.47
2023-06-18T19:18:37.991Z,36.30
2023-06-18T19:21:05.953Z,34.38
2023-06-18T19:23:33.884Z,30.60
2023-06-18T19:26:02.134Z,23.13
2023-06-18T19:28:30.003Z,22.35
2023-06-18T19:30:57.795Z,22.38
2023-06-18T19:33:25.388Z,24.17
2023-06-18T19:35:53.306Z,29.48
2023-06-18T19:38:20.955Z,25.35
2023-06-18T19:40:50.892Z,22.08
2023-06-18T19:43:22.373Z,19.60
2023-06-18T19:45:50.207Z,18.35
2023-06-18T19:48:18.148Z,19.80
2023-06-18T19:50:45.991Z,14.13
2023-06-18T19:53:13.591Z,13.90
2023-06-18T19:55:42.039Z,14.55
2023-06-18T19:58:09.661Z,14.27
2023-06-18T20:00:41.662Z,14.18
2023-06-18T20:03:09.519Z,15.15
2023-06-18T20:05:38.212Z,16.73
2023-06-18T20:08:05.885Z,19.55
2023-06-18T20:10:34.016Z,15.73
2023-06-18T20:13:01.672Z,15.18
2023-06-18T20:15:30.791Z,13.23
2023-06-18T20:17:58.496Z,13.88
2023-06-18T20:20:26.730Z,15.45
2023-06-18T20:22:54.533Z,17.08
2023-06-18T20:25:22.653Z,15.95
2023-06-18T20:27:50.299Z,16.02
2023-06-18T20:30:18.877Z,14.20
2023-06-18T20:32:46.555Z,15.00
2023-06-18T20:35:14.143Z,14.43
2023-06-18T20:37:41.713Z,17.65
2023-06-18T20:40:09.733Z,14.02
2023-06-18T20:42:37.310Z,15.80
2023-06-18T20:45:05.351Z,13.20
2023-06-18T20:47:33.032Z,13.13
2023-06-18T20:50:00.874Z,17.23
2023-06-18T20:52:29.180Z,16.83
2023-06-18T20:54:56.873Z,13.90
2023-06-18T20:57:24.539Z,14.50
2023-06-18T20:59:53.177Z,18.13
2023-06-18T21:02:23.723Z,16.05
2023-06-18T21:04:52.702Z,13.52
2023-06-18T21:07:21.417Z,14.55
2023-06-18T21:09:49.213Z,15.18
2023-06-18T21:12:16.805Z,16.45
2023-06-18T21:14:44.441Z,17.13
2023-06-18T21:17:12.103Z,13.68
2023-06-18T21:19:39.786Z,15.05
2023-06-18T21:22:07.285Z,13.82
2023-06-18T21:24:34.874Z,13.63
2023-06-18T21:27:02.460Z,15.43
2023-06-18T21:29:29.958Z,15.05
2023-06-18T21:31:59.097Z,13.80
2023-06-18T21:34:26.828Z,17.52
2023-06-18T21:36:54.474Z,14.93
2023-06-18T21:39:22.060Z,15.60
2023-06-18T21:41:49.887Z,16.38
2023-06-18T21:44:17.374Z,15.00
2023-06-18T21:46:45.530Z,14.00
2023-06-18T21:49:13.193Z,14.75
2023-06-18T21:51:40.751Z,15.02
2023-06-18T21:54:08.337Z,15.43
2023-06-18T21:56:35.872Z,17.10
2023-06-18T21:59:03.439Z,14.25
2023-06-18T22:01:34.017Z,15.50
2023-06-18T22:04:01.645Z,15.13
2023-06-18T22:06:29.388Z,14.35
2023-06-18T22:08:56.902Z,15.73
2023-06-18T22:11:24.430Z,16.83
2023-06-18T22:13:51.989Z,14.43
2023-06-18T22:16:19.873Z,20.05
2023-06-18T22:18:48.070Z,14.65
2023-06-18T22:21:15.882Z,15.35
2023-06-18T22:23:44.636Z,16.02
2023-06-18T22:26:12.224Z,15.77
2023-06-18T22:28:39.860Z,17.00
2023-06-18T22:31:07.450Z,16.15
2023-06-18T22:33:34.968Z,15.10
